createdAt,value
2023-02-14T00:00:38.169Z,100345.63
2023-02-14T00:01:39.611Z,100348.78
2023-02-14T00:02:41.088Z,100353.50
2023-02-14T00:03:42.586Z,100355.78
2023-02-14T00:04:45.882Z,100350.56
2023-02-14T00:05:47.510Z,100347.69
2023-02-14T00:06:49.407Z,100346.91
2023-02-14T00:07:50.919Z,100350.56
2023-02-14T00:08:54.136Z,100351.84
2023-02-14T00:09:55.567Z,100350.56
2023-02-14T00:10:57.296Z,100349.81
2023-02-14T00:11:59.030Z,100353.19
2023-02-14T00:13:00.487Z,100349.81
2023-02-14T00:14:20.477Z,100354.78
2023-02-14T00:15:25.363Z,100356.81
2023-02-14T00:16:27.171Z,100350.56
2023-02-14T00:17:28.687Z,100356.28
2023-02-14T00:18:48.744Z,100347.69
2023-02-14T00:19:50.539Z,100352.16
2023-02-14T00:20:52.046Z,100349.81
2023-02-14T00:21:53.772Z,100353.47
2023-02-14T00:22:55.251Z,100351.63
2023-02-14T00:23:56.664Z,100350.59
2023-02-14T00:24:58.142Z,100351.38
2023-02-14T00:25:59.555Z,100349.28
2023-02-14T00:27:01.708Z,100346.69
2023-02-14T00:28:03.129Z,100347.72
2023-02-14T00:29:09.325Z,100347.72
2023-02-14T00:30:13.308Z,100345.66
2023-02-14T00:31:14.870Z,100345.16
2023-02-14T00:32:16.381Z,100349.59
2023-02-14T00:33:17.813Z,100343.56
2023-02-14T00:34:19.898Z,100344.88
2023-02-14T00:35:21.353Z,100351.38
2023-02-14T00:36:22.846Z,100347.31
2023-02-14T00:37:25.111Z,100352.97
2023-02-14T00:38:26.523Z,100351.06
2023-02-14T00:39:27.962Z,100344.56
2023-02-14T00:40:29.542Z,100344.09
2023-02-14T00:41:31.239Z,100349.81
2023-02-14T00:42:32.730Z,100350.38
2023-02-14T00:43:34.219Z,100351.41
2023-02-14T00:44:35.645Z,100347.72
2023-02-14T00:45:37.095Z,100342.72
2023-02-14T00:46:38.725Z,100355.28
2023-02-14T00:47:40.209Z,100347.50
2023-02-14T00:48:42.054Z,100354.84
2023-02-14T00:49:43.534Z,100346.78
2023-02-14T00:50:46.263Z,100347.63
2023-02-14T00:51:47.735Z,100346.78
2023-02-14T00:52:49.176Z,100346.56
2023-02-14T00:53:51.216Z,100343.97
2023-02-14T00:54:52.640Z,100348.91
2023-02-14T00:55:54.057Z,100352.22
2023-02-14T00:56:55.483Z,100354.56
2023-02-14T00:57:57.474Z,100346.94
2023-02-14T00:58:59.252Z,100355.31
2023-02-14T01:00:00.696Z,100355.38
2023-02-14T01:01:02.645Z,100352.78
2023-02-14T01:02:04.620Z,100351.50
2023-02-14T01:03:06.061Z,100352.84
2023-02-14T01:04:07.927Z,100357.84
2023-02-14T01:05:09.376Z,100352.91
2023-02-14T01:06:10.905Z,100355.25
2023-02-14T01:07:12.463Z,100358.41
2023-02-14T01:08:14.537Z,100361.25
2023-02-14T01:09:15.979Z,100355.97
2023-02-14T01:10:17.657Z,100358.56
2023-02-14T01:11:21.949Z,100356.75
2023-02-14T01:12:23.374Z,100357.56
2023-02-14T01:13:25.206Z,100357.06
2023-02-14T01:14:26.621Z,100354.75
2023-02-14T01:15:29.045Z,100355.25
2023-02-14T01:16:30.888Z,100353.47
2023-02-14T01:17:32.429Z,100354.50
2023-02-14T01:18:34.827Z,100356.88
2023-02-14T01:19:36.691Z,100346.69
2023-02-14T01:20:38.598Z,100349.03
2023-02-14T01:21:40.120Z,100350.59
2023-02-14T01:22:42.652Z,100350.84
2023-02-14T01:23:45.114Z,100353.47
2023-02-14T01:24:46.537Z,100356.25
2023-02-14T01:25:48.002Z,100349.66
2023-02-14T01:26:49.463Z,100351.38
2023-02-14T01:27:51.326Z,100347.75
2023-02-14T01:28:53.436Z,100348.56
2023-02-14T01:29:54.868Z,100347.84
2023-02-14T01:30:56.295Z,100355.16
2023-02-14T01:31:57.776Z,100343.59
2023-02-14T01:32:59.350Z,100350.34
2023-02-14T01:34:01.653Z,100348.56
2023-02-14T01:35:03.286Z,100352.22
2023-02-14T01:36:05.041Z,100348.84
2023-02-14T01:37:06.446Z,100352.50
2023-02-14T01:38:07.845Z,100355.13
2023-02-14T01:39:14.667Z,100351.66
2023-02-14T01:40:16.307Z,100362.91
2023-02-14T01:41:18.365Z,100357.34
2023-02-14T01:42:19.888Z,100355.25
2023-02-14T01:43:21.343Z,100356.53
2023-02-14T01:44:25.776Z,100356.53
2023-02-14T01:45:28.225Z,100355.31
2023-02-14T01:46:32.972Z,100353.78
2023-02-14T01:47:40.278Z,100346.53
2023-02-14T01:48:41.853Z,100354.75
2023-02-14T01:49:52.142Z,100352.63
2023-02-14T01:50:54.791Z,100353.88
2023-02-14T01:52:04.438Z,100347.13
2023-02-14T01:53:16.051Z,100349.28
2023-02-14T01:54:20.039Z,100346.25
2023-02-14T01:55:25.362Z,100349.34
2023-02-14T01:56:41.068Z,100355.63
2023-02-14T01:58:04.009Z,100352.00
2023-02-14T01:59:11.653Z,100351.50
2023-02-14T02:00:32.358Z,100344.78
2023-02-14T02:01:34.051Z,100346.88
2023-02-14T02:02:35.762Z,100337.22
2023-02-14T02:03:41.816Z,100341.41
2023-02-14T02:04:46.930Z,100341.91
2023-02-14T02:05:52.152Z,100340.59
2023-02-14T02:07:00.139Z,100341.84
2023-02-14T02:08:01.971Z,100341.31
2023-02-14T02:09:20.413Z,100347.28
2023-02-14T02:10:21.994Z,100343.88
2023-02-14T02:11:23.526Z,100339.94
2023-02-14T02:12:25.004Z,100344.88
2023-02-14T02:13:26.466Z,100348.03
2023-02-14T02:14:28.529Z,100339.16
2023-02-14T02:15:35.720Z,100342.63
2023-02-14T02:16:52.222Z,100337.19
2023-02-14T02:18:19.141Z,100344.16
2023-02-14T02:19:58.614Z,100339.97
2023-02-14T02:21:37.792Z,100338.44
2023-02-14T02:23:18.104Z,100331.38
2023-02-14T02:24:35.187Z,100327.75
2023-02-14T02:25:58.466Z,100332.19
2023-02-14T02:27:25.800Z,100337.19
2023-02-14T02:29:01.738Z,100331.91
2023-02-14T02:30:28.282Z,100334.75
2023-02-14T02:31:48.300Z,100331.66
2023-02-14T02:32:49.712Z,100327.72
2023-02-14T02:34:27.196Z,100332.09
2023-02-14T02:35:43.700Z,100328.47
2023-02-14T02:37:03.811Z,100327.44
2023-02-14T02:38:50.352Z,100322.53
2023-02-14T02:40:04.792Z,100323.28
2023-02-14T02:41:18.367Z,100330.75
2023-02-14T02:42:50.621Z,100324.78
2023-02-14T02:44:10.685Z,100330.78
2023-02-14T02:45:35.883Z,100330.81
2023-02-14T02:46:49.292Z,100331.66
2023-02-14T02:47:53.687Z,100336.66
2023-02-14T02:49:05.072Z,100332.75
2023-02-14T02:50:44.278Z,100331.13
2023-02-14T02:52:12.897Z,100330.22
2023-02-14T02:54:01.479Z,100332.50
2023-02-14T02:55:11.656Z,100328.28
2023-02-14T02:56:43.019Z,100324.34
2023-02-14T02:57:46.871Z,100327.78
2023-02-14T02:58:57.223Z,100334.09
2023-02-14T02:59:59.763Z,100331.03
2023-02-14T03:01:06.706Z,100335.22
2023-02-14T03:02:18.430Z,100334.22
2023-02-14T03:03:42.362Z,100339.47
2023-02-14T03:04:57.032Z,100339.53
2023-02-14T03:05:58.861Z,100337.97
2023-02-14T03:07:00.716Z,100335.09
2023-02-14T03:08:03.954Z,100332.53
2023-02-14T03:09:33.083Z,100337.50
2023-02-14T03:10:38.126Z,100340.34
2023-02-14T03:12:05.447Z,100332.81
2023-02-14T03:13:25.457Z,100330.97
2023-02-14T03:14:39.637Z,100335.69
2023-02-14T03:15:52.583Z,100340.59
2023-02-14T03:17:05.409Z,100337.69
2023-02-14T03:18:43.789Z,100335.59
2023-02-14T03:20:17.878Z,100341.53
2023-02-14T03:21:31.428Z,100337.59
2023-02-14T03:22:54.040Z,100334.16
2023-02-14T03:24:33.230Z,100333.19
2023-02-14T03:25:49.648Z,100331.63
2023-02-14T03:27:06.828Z,100336.38
2023-02-14T03:28:22.797Z,100338.28
2023-02-14T03:29:37.105Z,100340.69
2023-02-14T03:30:50.871Z,100336.56
2023-02-14T03:32:31.305Z,100344.16
2023-02-14T03:33:44.801Z,100346.00
2023-02-14T03:35:04.275Z,100340.03
2023-02-14T03:36:36.283Z,100340.88
2023-02-14T03:38:00.483Z,100332.00
2023-02-14T03:39:08.576Z,100331.72
2023-02-14T03:40:25.138Z,100336.19
2023-02-14T03:41:31.606Z,100336.97
2023-02-14T03:42:56.213Z,100340.91
2023-02-14T03:44:00.869Z,100341.69
2023-02-14T03:45:06.216Z,100349.03
2023-02-14T03:46:15.754Z,100344.03
2023-02-14T03:47:22.369Z,100342.19
2023-02-14T03:48:27.340Z,100336.69
2023-02-14T03:49:33.966Z,100341.13
2023-02-14T03:50:38.174Z,100337.50
2023-02-14T03:51:42.630Z,100337.00
2023-02-14T03:52:45.770Z,100330.22
2023-02-14T03:53:52.085Z,100337.81
2023-02-14T03:54:57.524Z,100328.94
2023-02-14T03:56:27.125Z,100335.22
2023-02-14T03:57:40.456Z,100336.22
2023-02-14T03:58:47.162Z,100340.44
2023-02-14T03:59:49.011Z,100340.66
2023-02-14T04:00:55.072Z,100339.88
2023-02-14T04:02:15.341Z,100338.88
2023-02-14T04:03:18.673Z,100338.88
2023-02-14T04:04:24.126Z,100341.22
2023-02-14T04:05:27.898Z,100344.34
2023-02-14T04:06:29.443Z,100338.06
2023-02-14T04:07:30.929Z,100337.28
2023-02-14T04:08:32.465Z,100336.22
2023-02-14T04:09:33.874Z,100344.06
2023-02-14T04:10:35.666Z,100334.66
2023-02-14T04:11:39.026Z,100335.22
2023-02-14T04:12:40.550Z,100345.41
2023-02-14T04:13:41.997Z,100338.63
2023-02-14T04:14:43.478Z,100346.19
2023-02-14T04:15:45.070Z,100348.00
2023-02-14T04:17:05.156Z,100343.56
2023-02-14T04:18:25.100Z,100338.59
2023-02-14T04:19:26.642Z,100340.13
2023-02-14T04:20:28.878Z,100340.34
2023-02-14T04:21:30.330Z,100337.22
2023-02-14T04:22:31.762Z,100341.66
2023-02-14T04:23:33.216Z,100344.00
2023-02-14T04:24:34.653Z,100333.56
2023-02-14T04:25:36.261Z,100334.63
2023-02-14T04:26:37.732Z,100333.34
2023-02-14T04:27:39.341Z,100339.09
2023-02-14T04:28:40.817Z,100336.75
2023-02-14T04:29:49.882Z,100340.63
2023-02-14T04:30:51.412Z,100334.03
2023-02-14T04:31:52.982Z,100335.09
2023-02-14T04:32:54.504Z,100338.22
2023-02-14T04:33:56.033Z,100335.91
2023-02-14T04:34:57.444Z,100335.13
2023-02-14T04:36:00.129Z,100338.78
2023-02-14T04:37:01.741Z,100334.59
2023-02-14T04:38:04.186Z,100325.22
2023-02-14T04:39:05.611Z,100328.59
2023-02-14T04:40:07.727Z,100324.38
2023-02-14T04:41:09.197Z,100321.69
2023-02-14T04:42:10.906Z,100322.41
2023-02-14T04:43:12.371Z,100321.38
2023-02-14T04:44:14.181Z,100327.03
2023-02-14T04:45:15.704Z,100322.94
2023-02-14T04:46:17.208Z,100318.00
2023-02-14T04:47:18.809Z,100317.22
2023-02-14T04:48:20.349Z,100327.69
2023-02-14T04:49:21.969Z,100316.50
2023-02-14T04:50:23.532Z,100324.25
2023-02-14T04:51:27.354Z,100317.72
2023-02-14T04:52:29.155Z,100314.66
2023-02-14T04:53:30.584Z,100317.06
2023-02-14T04:54:33.315Z,100313.97
2023-02-14T04:55:34.758Z,100307.19
2023-02-14T04:56:36.240Z,100308.50
2023-02-14T04:57:37.815Z,100304.56
2023-02-14T04:58:39.303Z,100299.84
2023-02-14T04:59:40.718Z,100305.34
2023-02-14T05:00:42.168Z,100306.41
2023-02-14T05:01:43.679Z,100308.75
2023-02-14T05:02:45.208Z,100301.47
2023-02-14T05:03:46.746Z,100309.28
2023-02-14T05:04:49.760Z,100304.56
2023-02-14T05:05:51.622Z,100308.75
2023-02-14T05:06:53.114Z,100309.00
2023-02-14T05:07:54.531Z,100303.00
2023-02-14T05:08:56.755Z,100302.75
2023-02-14T05:09:58.408Z,100307.69
2023-02-14T05:11:00.136Z,100310.03
2023-02-14T05:12:01.806Z,100302.47
2023-02-14T05:13:03.304Z,100308.50
2023-02-14T05:14:04.933Z,100305.34
2023-02-14T05:15:06.626Z,100307.47
2023-02-14T05:16:08.182Z,100304.34
2023-02-14T05:17:09.856Z,100305.25
2023-02-14T05:18:11.258Z,100306.19
2023-02-14T05:19:13.232Z,100301.28
2023-02-14T05:20:14.887Z,100307.56
2023-02-14T05:21:16.339Z,100302.59
2023-02-14T05:22:18.608Z,100299.41
2023-02-14T05:23:21.257Z,100302.75
2023-02-14T05:24:22.751Z,100303.22
2023-02-14T05:25:24.194Z,100303.22
2023-02-14T05:26:25.811Z,100307.63
2023-02-14T05:27:27.608Z,100305.03
2023-02-14T05:28:29.050Z,100303.06
2023-02-14T05:29:30.469Z,100307.31
2023-02-14T05:30:32.361Z,100299.94
2023-02-14T05:31:33.946Z,100308.09
2023-02-14T05:32:35.512Z,100306.94
2023-02-14T05:33:36.990Z,100298.13
2023-02-14T05:34:38.408Z,100298.63
2023-02-14T05:35:39.852Z,100304.84
2023-02-14T05:36:41.285Z,100297.88
2023-02-14T05:37:42.717Z,100302.38
2023-02-14T05:38:44.436Z,100301.38
2023-02-14T05:39:45.904Z,100300.91
2023-02-14T05:40:47.362Z,100303.28
2023-02-14T05:41:48.781Z,100308.53
2023-02-14T05:42:52.309Z,100297.09
2023-02-14T05:43:53.752Z,100298.13
2023-02-14T05:44:55.186Z,100299.44
2023-02-14T05:45:57.817Z,100290.06
2023-02-14T05:46:59.674Z,100298.13
2023-02-14T05:48:01.467Z,100297.84
2023-02-14T05:49:03.502Z,100299.44
2023-02-14T05:50:06.269Z,100287.44
2023-02-14T05:51:10.611Z,100287.34
2023-02-14T05:52:12.063Z,100287.59
2023-02-14T05:53:13.973Z,100286.81
2023-02-14T05:54:15.619Z,100290.25
2023-02-14T05:55:17.185Z,100288.47
2023-02-14T05:56:18.600Z,100285.59
2023-02-14T05:57:20.118Z,100289.13
2023-02-14T05:58:21.520Z,100289.47
2023-02-14T05:59:22.960Z,100281.06
2023-02-14T06:00:24.922Z,100284.44
2023-02-14T06:01:26.383Z,100284.44
2023-02-14T06:02:27.881Z,100286.03
2023-02-14T06:03:29.333Z,100287.13
2023-02-14T06:04:30.816Z,100287.16
2023-02-14T06:05:32.251Z,100289.69
2023-02-14T06:06:36.283Z,100292.06
2023-02-14T06:07:38.151Z,100295.72
2023-02-14T06:08:39.604Z,100291.84
2023-02-14T06:09:41.055Z,100291.91
2023-02-14T06:10:42.582Z,100299.81
2023-02-14T06:11:44.414Z,100297.22
2023-02-14T06:12:48.318Z,100290.75
2023-02-14T06:13:49.814Z,100296.22
2023-02-14T06:14:51.243Z,100294.44
2023-02-14T06:15:52.687Z,100288.69
2023-02-14T06:16:54.364Z,100285.56
2023-02-14T06:17:57.025Z,100287.88
2023-02-14T06:18:58.478Z,100295.56
2023-02-14T06:19:59.909Z,100291.94
2023-02-14T06:21:01.637Z,100287.34
2023-02-14T06:22:04.028Z,100292.81
2023-02-14T06:23:05.516Z,100294.41
2023-02-14T06:24:07.082Z,100298.19
2023-02-14T06:25:08.490Z,100295.56
2023-02-14T06:26:09.979Z,100290.31
2023-02-14T06:27:11.416Z,100293.19
2023-02-14T06:28:12.880Z,100295.25
2023-02-14T06:29:17.375Z,100294.03
2023-02-14T06:30:19.246Z,100294.94
2023-02-14T06:31:21.326Z,100289.56
2023-02-14T06:32:23.211Z,100298.94
2023-02-14T06:33:24.709Z,100297.72
2023-02-14T06:34:26.194Z,100291.88
2023-02-14T06:35:27.654Z,100306.00
2023-02-14T06:36:29.397Z,100306.25
2023-02-14T06:37:33.637Z,100306.78
2023-02-14T06:38:35.088Z,100310.47
2023-02-14T06:39:36.603Z,100306.41
2023-02-14T06:40:38.028Z,100304.88
2023-02-14T06:41:39.473Z,100308.34
2023-02-14T06:42:41.002Z,100306.16
2023-02-14T06:43:43.650Z,100310.56
2023-02-14T06:44:45.107Z,100311.50
2023-02-14T06:45:46.916Z,100314.34
2023-02-14T06:46:48.381Z,100317.38
2023-02-14T06:47:49.858Z,100315.34
2023-02-14T06:48:51.342Z,100316.22
2023-02-14T06:49:52.764Z,100312.44
2023-02-14T06:50:54.498Z,100309.75
2023-02-14T06:51:55.978Z,100306.50
2023-02-14T06:52:57.456Z,100314.34
2023-02-14T06:53:58.896Z,100312.22
2023-02-14T06:55:00.360Z,100311.44
2023-02-14T06:56:02.202Z,100312.50
2023-02-14T06:57:03.934Z,100315.00
2023-02-14T06:58:05.432Z,100306.97
2023-02-14T06:59:06.951Z,100316.16
2023-02-14T07:00:10.259Z,100311.72
2023-02-14T07:01:12.144Z,100313.66
2023-02-14T07:02:13.673Z,100307.22
2023-02-14T07:03:15.786Z,100318.13
2023-02-14T07:04:17.786Z,100308.00
2023-02-14T07:05:19.318Z,100314.47
2023-02-14T07:06:21.211Z,100303.78
2023-02-14T07:07:22.629Z,100318.47
2023-02-14T07:08:26.160Z,100311.44
2023-02-14T07:09:27.738Z,100310.50
2023-02-14T07:10:29.171Z,100309.84
2023-02-14T07:11:30.656Z,100311.50
2023-02-14T07:12:32.157Z,100304.69
2023-02-14T07:13:33.594Z,100308.50
2023-02-14T07:14:35.108Z,100313.31
2023-02-14T07:15:36.560Z,100316.78
2023-02-14T07:16:38.017Z,100314.81
2023-02-14T07:17:39.835Z,100310.00
2023-02-14T07:18:41.386Z,100303.81
2023-02-14T07:19:42.791Z,100305.44
2023-02-14T07:20:45.077Z,100312.31
2023-02-14T07:21:46.492Z,100308.19
2023-02-14T07:22:48.012Z,100315.81
2023-02-14T07:23:50.173Z,100309.88
2023-02-14T07:24:51.627Z,100310.19
2023-02-14T07:25:53.117Z,100308.94
2023-02-14T07:26:54.584Z,100313.59
2023-02-14T07:27:56.002Z,100319.63
2023-02-14T07:28:57.459Z,100314.44
2023-02-14T07:29:59.291Z,100310.28
2023-02-14T07:31:01.824Z,100318.41
2023-02-14T07:32:03.733Z,100315.53
2023-02-14T07:33:05.409Z,100318.16
2023-02-14T07:34:06.829Z,100321.81
2023-02-14T07:35:08.814Z,100319.78
2023-02-14T07:36:10.516Z,100320.34
2023-02-14T07:37:11.905Z,100325.06
2023-02-14T07:38:13.378Z,100317.53
2023-02-14T07:39:14.812Z,100314.34
2023-02-14T07:40:16.479Z,100319.09
2023-02-14T07:41:17.985Z,100321.13
2023-02-14T07:42:19.453Z,100321.66
2023-02-14T07:43:20.870Z,100319.47
2023-02-14T07:44:22.485Z,100306.94
2023-02-14T07:45:25.116Z,100318.44
2023-02-14T07:46:26.653Z,100306.47
2023-02-14T07:47:28.162Z,100303.88
2023-02-14T07:48:31.945Z,100306.50
2023-02-14T07:49:35.892Z,100304.13
2023-02-14T07:50:37.693Z,100306.44
2023-02-14T07:51:39.305Z,100308.53
2023-02-14T07:52:40.739Z,100303.03
2023-02-14T07:53:42.217Z,100304.34
2023-02-14T07:54:43.755Z,100306.41
2023-02-14T07:55:50.347Z,100305.66
2023-02-14T07:56:51.861Z,100301.91
2023-02-14T07:57:53.329Z,100312.41
2023-02-14T07:58:54.922Z,100314.44
2023-02-14T07:59:56.367Z,100305.19
2023-02-14T08:00:58.291Z,100304.19
2023-02-14T08:01:59.977Z,100301.88
2023-02-14T08:03:01.509Z,100300.41
2023-02-14T08:04:03.112Z,100305.41
2023-02-14T08:05:04.978Z,100305.72
2023-02-14T08:06:06.479Z,100300.78
2023-02-14T08:07:07.980Z,100301.53
2023-02-14T08:08:09.529Z,100302.03
2023-02-14T08:09:11.240Z,100308.66
2023-02-14T08:10:13.272Z,100301.94
2023-02-14T08:11:35.282Z,100301.22
2023-02-14T08:12:55.350Z,100306.38
2023-02-14T08:13:56.791Z,100301.56
2023-02-14T08:15:18.250Z,100302.44
2023-02-14T08:16:19.720Z,100300.78
2023-02-14T08:17:21.184Z,100305.75
2023-02-14T08:18:23.240Z,100301.06
2023-02-14T08:19:24.714Z,100302.69
2023-02-14T08:20:26.337Z,100304.09
2023-02-14T08:21:28.244Z,100300.94
2023-02-14T08:22:29.682Z,100297.31
2023-02-14T08:23:31.772Z,100292.09
2023-02-14T08:24:33.229Z,100297.56
2023-02-14T08:25:34.758Z,100295.25
2023-02-14T08:26:36.574Z,100286.06
2023-02-14T08:27:37.989Z,100292.53
2023-02-14T08:28:39.408Z,100285.56
2023-02-14T08:29:40.825Z,100288.47
2023-02-14T08:30:44.381Z,100291.31
2023-02-14T08:31:47.472Z,100292.34
2023-02-14T08:32:49.168Z,100296.78
2023-02-14T08:33:50.657Z,100293.41
2023-02-14T08:34:52.400Z,100294.69
2023-02-14T08:35:53.978Z,100294.00
2023-02-14T08:36:55.491Z,100288.28
2023-02-14T08:37:56.978Z,100294.03
2023-02-14T08:38:58.547Z,100290.34
2023-02-14T08:40:00.063Z,100291.91
2023-02-14T08:41:04.402Z,100287.22
2023-02-14T08:42:07.294Z,100288.25
2023-02-14T08:43:09.689Z,100292.72
2023-02-14T08:44:11.543Z,100295.59
2023-02-14T08:45:12.980Z,100288.31
2023-02-14T08:46:15.102Z,100294.59
2023-02-14T08:47:16.539Z,100293.03
2023-02-14T08:48:18.018Z,100293.84
2023-02-14T08:49:19.398Z,100295.66
2023-02-14T08:50:21.525Z,100300.06
2023-02-14T08:51:23.894Z,100295.25
2023-02-14T08:52:25.354Z,100295.97
2023-02-14T08:53:26.776Z,100294.81
2023-02-14T08:54:28.155Z,100289.00
2023-02-14T08:55:29.914Z,100295.75
2023-02-14T08:56:31.373Z,100297.41
2023-02-14T08:57:33.090Z,100294.34
2023-02-14T08:58:38.670Z,100293.09
2023-02-14T08:59:40.084Z,100287.50
2023-02-14T09:00:41.585Z,100293.97
2023-02-14T09:01:43.080Z,100279.38
2023-02-14T09:02:44.489Z,100289.06
2023-02-14T09:03:45.988Z,100290.41
2023-02-14T09:04:47.465Z,100289.00
2023-02-14T09:05:48.890Z,100290.00
2023-02-14T09:06:50.628Z,100292.09
2023-02-14T09:07:52.838Z,100294.03
2023-02-14T09:08:55.235Z,100285.50
2023-02-14T09:09:56.815Z,100286.59
2023-02-14T09:10:58.821Z,100289.75
2023-02-14T09:12:04.820Z,100288.50
2023-02-14T09:13:06.286Z,100287.72
2023-02-14T09:14:07.813Z,100282.78
2023-02-14T09:15:11.292Z,100288.06
2023-02-14T09:16:16.510Z,100291.50
2023-02-14T09:17:18.273Z,100287.34
2023-02-14T09:18:19.724Z,100288.56
2023-02-14T09:19:21.221Z,100290.56
2023-02-14T09:20:23.282Z,100285.03
2023-02-14T09:21:27.124Z,100287.34
2023-02-14T09:22:28.620Z,100281.81
2023-02-14T09:23:30.056Z,100283.03
2023-02-14T09:24:33.749Z,100288.91
2023-02-14T09:25:35.172Z,100283.88
2023-02-14T09:26:38.854Z,100278.00
2023-02-14T09:27:40.382Z,100285.34
2023-02-14T09:28:42.251Z,100281.97
2023-02-14T09:29:44.008Z,100282.06
2023-02-14T09:30:45.535Z,100281.63
2023-02-14T09:31:47.122Z,100279.75
2023-02-14T09:32:50.788Z,100279.81
2023-02-14T09:34:10.893Z,100279.31
2023-02-14T09:35:12.838Z,100281.03
2023-02-14T09:36:14.410Z,100277.72
2023-02-14T09:37:34.105Z,100278.28
2023-02-14T09:38:35.580Z,100281.22
2023-02-14T09:39:37.603Z,100281.00
2023-02-14T09:40:39.184Z,100277.38
2023-02-14T09:41:52.262Z,100280.81
2023-02-14T09:43:02.797Z,100284.47
2023-02-14T09:44:24.936Z,100288.38
2023-02-14T09:45:29.035Z,100285.00
2023-02-14T09:46:37.411Z,100278.47
2023-02-14T09:47:47.517Z,100278.16
2023-02-14T09:48:49.794Z,100283.59
2023-02-14T09:49:53.388Z,100280.25
2023-02-14T09:51:00.246Z,100275.66
2023-02-14T09:52:04.463Z,100282.69
2023-02-14T09:53:55.349Z,100279.31
2023-02-14T09:55:01.310Z,100280.13
2023-02-14T09:56:25.005Z,100282.72
2023-02-14T09:57:42.828Z,100280.00
2023-02-14T09:58:53.713Z,100273.53
2023-02-14T10:00:12.716Z,100283.50
2023-02-14T10:01:29.059Z,100273.53
2023-02-14T10:02:53.620Z,100275.91
2023-02-14T10:04:11.556Z,100277.75
2023-02-14T10:05:38.586Z,100280.81
2023-02-14T10:06:51.454Z,100280.84
2023-02-14T10:08:00.469Z,100277.66
2023-02-14T10:09:17.064Z,100280.72
2023-02-14T10:10:40.243Z,100280.22
2023-02-14T10:11:45.477Z,100285.91
2023-02-14T10:13:01.839Z,100281.47
2023-02-14T10:14:16.080Z,100278.41
2023-02-14T10:15:23.721Z,100279.53
2023-02-14T10:16:43.125Z,100277.94
2023-02-14T10:17:54.701Z,100277.75
2023-02-14T10:19:03.166Z,100278.19
2023-02-14T10:20:16.678Z,100276.84
2023-02-14T10:21:32.487Z,100272.19
2023-02-14T10:22:50.382Z,100274.03
2023-02-14T10:24:01.918Z,100278.41
2023-02-14T10:25:13.481Z,100275.34
2023-02-14T10:26:22.732Z,100281.41
2023-02-14T10:27:24.312Z,100274.72
2023-02-14T10:28:32.270Z,100269.75
2023-02-14T10:29:33.670Z,100273.16
2023-02-14T10:30:39.688Z,100273.53
2023-02-14T10:31:44.461Z,100273.81
2023-02-14T10:33:11.174Z,100270.50
2023-02-14T10:34:28.164Z,100270.38
2023-02-14T10:35:43.470Z,100267.56
2023-02-14T10:37:02.847Z,100276.09
2023-02-14T10:38:30.539Z,100263.81
2023-02-14T10:39:50.262Z,100268.19
2023-02-14T10:41:20.732Z,100265.53
2023-02-14T10:42:57.004Z,100265.22
2023-02-14T10:44:13.593Z,100266.88
2023-02-14T10:45:49.396Z,100264.38
2023-02-14T10:46:53.598Z,100265.50
2023-02-14T10:48:32.586Z,100261.66
2023-02-14T10:49:47.416Z,100265.09
2023-02-14T10:50:58.988Z,100261.25
2023-02-14T10:52:08.090Z,100262.31
2023-02-14T10:53:37.412Z,100261.78
2023-02-14T10:54:43.029Z,100264.16
2023-02-14T10:55:54.943Z,100267.31
2023-02-14T10:57:04.551Z,100262.84
2023-02-14T10:58:09.028Z,100257.41
2023-02-14T10:59:45.937Z,100260.78
2023-02-14T11:00:59.824Z,100261.03
2023-02-14T11:02:02.084Z,100255.84
2023-02-14T11:03:08.089Z,100246.69
2023-02-14T11:04:12.718Z,100253.22
2023-02-14T11:05:31.415Z,100252.19
2023-02-14T11:06:33.385Z,100248.25
2023-02-14T11:07:34.856Z,100251.41
2023-02-14T11:08:41.512Z,100240.44
2023-02-14T11:09:43.673Z,100244.34
2023-02-14T11:10:45.747Z,100248.78
2023-02-14T11:12:00.263Z,100249.31
2023-02-14T11:13:01.747Z,100252.19
2023-02-14T11:14:22.034Z,100239.41
2023-02-14T11:15:34.019Z,100246.69
2023-02-14T11:16:37.369Z,100242.78
2023-02-14T11:17:39.023Z,100232.84
2023-02-14T11:18:41.249Z,100232.63
2023-02-14T11:19:55.515Z,100235.72
2023-02-14T11:21:02.721Z,100237.53
2023-02-14T11:22:04.750Z,100231.53
2023-02-14T11:23:20.423Z,100232.88
2023-02-14T11:24:28.048Z,100232.63
2023-02-14T11:25:31.746Z,100231.31
2023-02-14T11:26:35.128Z,100234.41
2023-02-14T11:27:37.880Z,100235.47
2023-02-14T11:28:49.451Z,100237.56
2023-02-14T11:29:53.746Z,100234.94
2023-02-14T11:30:55.447Z,100228.41
2023-02-14T11:32:06.838Z,100227.13
2023-02-14T11:33:22.397Z,100231.31
2023-02-14T11:34:30.240Z,100227.13
2023-02-14T11:35:35.491Z,100229.47
2023-02-14T11:36:42.160Z,100225.28
2023-02-14T11:37:50.460Z,100221.38
2023-02-14T11:39:32.118Z,100225.28
2023-02-14T11:40:36.645Z,100225.28
2023-02-14T11:41:49.837Z,100225.25
2023-02-14T11:42:54.665Z,100218.72
2023-02-14T11:44:16.029Z,100211.16
2023-02-14T11:45:38.433Z,100211.41
2023-02-14T11:46:53.086Z,100208.78
2023-02-14T11:48:36.585Z,100211.88
2023-02-14T11:49:39.046Z,100198.00
2023-02-14T11:50:42.568Z,100203.50
2023-02-14T11:51:45.425Z,100206.94
2023-02-14T11:52:53.122Z,100206.91
2023-02-14T11:54:00.566Z,100206.63
2023-02-14T11:55:02.123Z,100211.06
2023-02-14T11:56:03.864Z,100205.56
2023-02-14T11:57:08.080Z,100210.25
2023-02-14T11:58:27.861Z,100205.00
2023-02-14T11:59:32.526Z,100198.41
2023-02-14T12:00:35.116Z,100207.56
2023-02-14T12:01:40.812Z,100204.16
2023-02-14T12:02:51.605Z,100200.75
2023-02-14T12:03:56.178Z,100203.97
2023-02-14T12:05:01.705Z,100199.53
2023-02-14T12:06:03.300Z,100196.91
2023-02-14T12:07:18.954Z,100200.22
2023-02-14T12:08:26.688Z,100192.34
2023-02-14T12:09:30.615Z,100194.47
2023-02-14T12:10:35.163Z,100191.59
2023-02-14T12:11:37.725Z,100185.88
2023-02-14T12:12:56.337Z,100180.63
2023-02-14T12:13:58.271Z,100177.28
2023-02-14T12:15:23.995Z,100180.66
2023-02-14T12:16:34.638Z,100184.84
2023-02-14T12:17:39.080Z,100176.50
2023-02-14T12:18:47.146Z,100174.88
2023-02-14T12:20:09.483Z,100179.03
2023-02-14T12:21:25.983Z,100172.47
2023-02-14T12:22:36.413Z,100177.69
2023-02-14T12:23:49.189Z,100168.53
2023-02-14T12:24:54.081Z,100170.13
2023-02-14T12:26:41.461Z,100164.34
2023-02-14T12:27:53.416Z,100161.00
2023-02-14T12:29:20.592Z,100161.31
2023-02-14T12:30:24.033Z,100159.72
2023-02-14T12:31:25.632Z,100159.50
2023-02-14T12:32:29.623Z,100155.00
2023-02-14T12:33:31.214Z,100154.94
2023-02-14T12:34:33.870Z,100149.13
2023-02-14T12:35:54.797Z,100149.38
2023-02-14T12:37:26.109Z,100147.22
2023-02-14T12:38:57.767Z,100142.84